sensor_id;sensor_type;location;lat;lon;timestamp;P1;durP1;ratioP1;P2;durP2;ratioP2
16504;SDS011;8365;51.030;4.696;2023-07-31T00:02:29;13.53;;;5.63;;
16504;SDS011;8365;51.030;4.696;2023-07-31T00:04:59;13.80;;;5.53;;
16504;SDS011;8365;51.030;4.696;2023-07-31T00:07:30;12.03;;;5.23;;
16504;SDS011;8365;51.030;4.696;2023-07-31T00:10:04;11.77;;;6.37;;
16504;SDS011;8365;51.030;4.696;2023-07-31T00:12:35;12.03;;;5.80;;
16504;SDS011;8365;51.030;4.696;2023-07-31T00:15:06;13.43;;;6.63;;
16504;SDS011;8365;51.030;4.696;2023-07-31T00:17:40;10.80;;;5.73;;
16504;SDS011;8365;51.030;4.696;2023-07-31T00:20:11;13.37;;;6.40;;
16504;SDS011;8365;51.030;4.696;2023-07-31T00:22:41;14.05;;;7.18;;
16504;SDS011;8365;51.030;4.696;2023-07-31T00:25:14;12.53;;;5.60;;
16504;SDS011;8365;51.030;4.696;2023-07-31T00:27:44;15.23;;;6.22;;
16504;SDS011;8365;51.030;4.696;2023-07-31T00:30:16;13.67;;;6.73;;
16504;SDS011;8365;51.030;4.696;2023-07-31T00:32:46;9.83;;;6.13;;
16504;SDS011;8365;51.030;4.696;2023-07-31T00:35:17;12.23;;;5.57;;
16504;SDS011;8365;51.030;4.696;2023-07-31T00:37:47;14.10;;;6.27;;
16504;SDS011;8365;51.030;4.696;2023-07-31T00:40:20;13.37;;;6.47;;
16504;SDS011;8365;51.030;4.696;2023-07-31T00:42:50;12.80;;;6.13;;
16504;SDS011;8365;51.030;4.696;2023-07-31T00:45:21;13.00;;;5.70;;
16504;SDS011;8365;51.030;4.696;2023-07-31T00:47:53;13.57;;;6.03;;
16504;SDS011;8365;51.030;4.696;2023-07-31T00:50:27;11.83;;;6.30;;
16504;SDS011;8365;51.030;4.696;2023-07-31T00:52:58;13.40;;;5.70;;
16504;SDS011;8365;51.030;4.696;2023-07-31T00:55:29;14.10;;;5.97;;
16504;SDS011;8365;51.030;4.696;2023-07-31T00:58:00;13.98;;;6.10;;
16504;SDS011;8365;51.030;4.696;2023-07-31T01:00:31;11.68;;;5.90;;
16504;SDS011;8365;51.030;4.696;2023-07-31T01:03:01;10.93;;;5.70;;
16504;SDS011;8365;51.030;4.696;2023-07-31T01:08:32;13.73;;;6.20;;
16504;SDS011;8365;51.030;4.696;2023-07-31T01:11:24;10.57;;;5.80;;
16504;SDS011;8365;51.030;4.696;2023-07-31T01:14:00;15.93;;;6.00;;
16504;SDS011;8365;51.030;4.696;2023-07-31T01:16:31;11.23;;;6.22;;
16504;SDS011;8365;51.030;4.696;2023-07-31T01:19:02;15.70;;;5.95;;
16504;SDS011;8365;51.030;4.696;2023-07-31T01:26:43;13.07;;;6.17;;
16504;SDS011;8365;51.030;4.696;2023-07-31T01:29:20;12.98;;;6.03;;
16504;SDS011;8365;51.030;4.696;2023-07-31T01:32:01;13.43;;;6.07;;
16504;SDS011;8365;51.030;4.696;2023-07-31T01:34:33;11.13;;;6.17;;
16504;SDS011;8365;51.030;4.696;2023-07-31T01:37:07;13.93;;;6.07;;
16504;SDS011;8365;51.030;4.696;2023-07-31T01:39:38;15.83;;;6.20;;
16504;SDS011;8365;51.030;4.696;2023-07-31T01:42:08;14.37;;;6.70;;
16504;SDS011;8365;51.030;4.696;2023-07-31T01:44:39;12.38;;;6.00;;
16504;SDS011;8365;51.030;4.696;2023-07-31T01:47:11;11.80;;;6.20;;
16504;SDS011;8365;51.030;4.696;2023-07-31T01:49:42;13.57;;;6.13;;
16504;SDS011;8365;51.030;4.696;2023-07-31T01:52:12;10.13;;;6.17;;
16504;SDS011;8365;51.030;4.696;2023-07-31T01:54:43;15.73;;;6.53;;
16504;SDS011;8365;51.030;4.696;2023-07-31T01:57:15;15.43;;;6.30;;
16504;SDS011;8365;51.030;4.696;2023-07-31T01:59:46;14.45;;;6.38;;
16504;SDS011;8365;51.030;4.696;2023-07-31T02:02:16;12.02;;;6.45;;
16504;SDS011;8365;51.030;4.696;2023-07-31T02:04:49;11.85;;;6.55;;
16504;SDS011;8365;51.030;4.696;2023-07-31T02:07:20;10.20;;;5.60;;
16504;SDS011;8365;51.030;4.696;2023-07-31T02:09:50;13.63;;;6.28;;
16504;SDS011;8365;51.030;4.696;2023-07-31T02:12:21;11.55;;;5.82;;
16504;SDS011;8365;51.030;4.696;2023-07-31T02:14:51;12.93;;;6.32;;
16504;SDS011;8365;51.030;4.696;2023-07-31T02:17:24;11.87;;;5.60;;
16504;SDS011;8365;51.030;4.696;2023-07-31T02:19:54;11.52;;;6.15;;
16504;SDS011;8365;51.030;4.696;2023-07-31T02:22:25;9.73;;;5.65;;
16504;SDS011;8365;51.030;4.696;2023-07-31T02:24:55;14.38;;;6.35;;
16504;SDS011;8365;51.030;4.696;2023-07-31T02:27:28;10.68;;;5.95;;
16504;SDS011;8365;51.030;4.696;2023-07-31T02:29:58;19.08;;;6.55;;
16504;SDS011;8365;51.030;4.696;2023-07-31T02:32:29;9.43;;;5.50;;
16504;SDS011;8365;51.030;4.696;2023-07-31T02:34:59;14.32;;;6.18;;
16504;SDS011;8365;51.030;4.696;2023-07-31T02:37:30;10.55;;;6.00;;
16504;SDS011;8365;51.030;4.696;2023-07-31T02:40:00;12.05;;;6.40;;
16504;SDS011;8365;51.030;4.696;2023-07-31T02:42:31;9.48;;;5.72;;
16504;SDS011;8365;51.030;4.696;2023-07-31T02:45:01;12.27;;;5.95;;
16504;SDS011;8365;51.030;4.696;2023-07-31T02:47:34;11.45;;;5.82;;
16504;SDS011;8365;51.030;4.696;2023-07-31T02:50:05;9.63;;;6.03;;
16504;SDS011;8365;51.030;4.696;2023-07-31T02:52:36;10.40;;;6.10;;
16504;SDS011;8365;51.030;4.696;2023-07-31T02:55:06;11.23;;;6.03;;
16504;SDS011;8365;51.030;4.696;2023-07-31T02:57:37;12.23;;;6.63;;
16504;SDS011;8365;51.030;4.696;2023-07-31T03:00:12;10.63;;;6.45;;
16504;SDS011;8365;51.030;4.696;2023-07-31T03:02:43;11.02;;;5.80;;
16504;SDS011;8365;51.030;4.696;2023-07-31T03:05:13;12.75;;;5.95;;
16504;SDS011;8365;51.030;4.696;2023-07-31T03:07:44;10.73;;;5.80;;
16504;SDS011;8365;51.030;4.696;2023-07-31T03:10:14;10.45;;;7.38;;
16504;SDS011;8365;51.030;4.696;2023-07-31T03:12:48;12.32;;;6.95;;
16504;SDS011;8365;51.030;4.696;2023-07-31T03:15:18;13.40;;;6.97;;
16504;SDS011;8365;51.030;4.696;2023-07-31T03:17:49;8.38;;;6.28;;
16504;SDS011;8365;51.030;4.696;2023-07-31T03:20:19;12.52;;;6.63;;
16504;SDS011;8365;51.030;4.696;2023-07-31T03:22:52;13.27;;;6.93;;
16504;SDS011;8365;51.030;4.696;2023-07-31T03:25:25;11.25;;;6.30;;
16504;SDS011;8365;51.030;4.696;2023-07-31T03:27:56;8.85;;;6.22;;
16504;SDS011;8365;51.030;4.696;2023-07-31T03:30:26;10.05;;;6.28;;
16504;SDS011;8365;51.030;4.696;2023-07-31T03:32:57;11.43;;;6.90;;
16504;SDS011;8365;51.030;4.696;2023-07-31T03:35:27;8.93;;;5.93;;
16504;SDS011;8365;51.030;4.696;2023-07-31T03:38:00;8.82;;;6.35;;
16504;SDS011;8365;51.030;4.696;2023-07-31T03:40:30;11.88;;;6.47;;
16504;SDS011;8365;51.030;4.696;2023-07-31T03:43:01;10.18;;;6.32;;
16504;SDS011;8365;51.030;4.696;2023-07-31T03:45:31;8.88;;;5.90;;
16504;SDS011;8365;51.030;4.696;2023-07-31T03:48:03;9.75;;;6.30;;
16504;SDS011;8365;51.030;4.696;2023-07-31T03:50:34;8.02;;;6.05;;
16504;SDS011;8365;51.030;4.696;2023-07-31T03:53:04;10.07;;;6.97;;
16504;SDS011;8365;51.030;4.696;2023-07-31T03:55:35;9.35;;;6.88;;
16504;SDS011;8365;51.030;4.696;2023-07-31T03:58:05;9.63;;;6.90;;
16504;SDS011;8365;51.030;4.696;2023-07-31T04:00:36;10.75;;;6.60;;
16504;SDS011;8365;51.030;4.696;2023-07-31T04:03:06;10.25;;;7.15;;
16504;SDS011;8365;51.030;4.696;2023-07-31T04:05:38;7.80;;;6.63;;
16504;SDS011;8365;51.030;4.696;2023-07-31T04:08:09;9.52;;;6.28;;
16504;SDS011;8365;51.030;4.696;2023-07-31T04:10:40;10.82;;;7.03;;
16504;SDS011;8365;51.030;4.696;2023-07-31T04:13:10;7.72;;;6.90;;
16504;SDS011;8365;51.030;4.696;2023-07-31T04:15:41;11.03;;;7.57;;
16504;SDS011;8365;51.030;4.696;2023-07-31T04:18:11;8.57;;;6.90;;
16504;SDS011;8365;51.030;4.696;2023-07-31T04:20:42;9.02;;;6.95;;
16504;SDS011;8365;51.030;4.696;2023-07-31T04:23:15;12.05;;;6.82;;
16504;SDS011;8365;51.030;4.696;2023-07-31T04:25:45;10.25;;;7.45;;
16504;SDS011;8365;51.030;4.696;2023-07-31T04:28:16;9.38;;;7.38;;
16504;SDS011;8365;51.030;4.696;2023-07-31T04:30:46;8.95;;;7.00;;
16504;SDS011;8365;51.030;4.696;2023-07-31T04:33:17;9.98;;;7.03;;
16504;SDS011;8365;51.030;4.696;2023-07-31T04:35:51;9.90;;;7.03;;
16504;SDS011;8365;51.030;4.696;2023-07-31T04:38:22;12.33;;;7.37;;
16504;SDS011;8365;51.030;4.696;2023-07-31T04:40:53;8.95;;;7.50;;
16504;SDS011;8365;51.030;4.696;2023-07-31T04:43:23;9.10;;;7.07;;
16504;SDS011;8365;51.030;4.696;2023-07-31T04:45:54;14.55;;;7.53;;
16504;SDS011;8365;51.030;4.696;2023-07-31T04:48:24;12.70;;;6.93;;
16504;SDS011;8365;51.030;4.696;2023-07-31T04:50:54;9.10;;;6.72;;
16504;SDS011;8365;51.030;4.696;2023-07-31T04:53:27;8.95;;;6.72;;
16504;SDS011;8365;51.030;4.696;2023-07-31T04:55:58;7.95;;;6.82;;
16504;SDS011;8365;51.030;4.696;2023-07-31T04:58:28;9.80;;;6.70;;
16504;SDS011;8365;51.030;4.696;2023-07-31T05:00:59;9.47;;;6.70;;
16504;SDS011;8365;51.030;4.696;2023-07-31T05:03:29;8.60;;;6.53;;
16504;SDS011;8365;51.030;4.696;2023-07-31T05:06:02;10.30;;;6.90;;
16504;SDS011;8365;51.030;4.696;2023-07-31T05:08:33;10.18;;;7.07;;
16504;SDS011;8365;51.030;4.696;2023-07-31T05:11:03;9.67;;;6.60;;
16504;SDS011;8365;51.030;4.696;2023-07-31T05:13:34;9.30;;;6.53;;
16504;SDS011;8365;51.030;4.696;2023-07-31T05:16:04;7.93;;;6.72;;
16504;SDS011;8365;51.030;4.696;2023-07-31T05:18:35;9.38;;;6.45;;
16504;SDS011;8365;51.030;4.696;2023-07-31T05:21:05;8.63;;;6.38;;
16504;SDS011;8365;51.030;4.696;2023-07-31T05:23:36;10.57;;;6.53;;
16504;SDS011;8365;51.030;4.696;2023-07-31T05:26:06;9.63;;;6.78;;
16504;SDS011;8365;51.030;4.696;2023-07-31T05:28:37;12.03;;;7.03;;
16504;SDS011;8365;51.030;4.696;2023-07-31T05:31:08;10.77;;;6.87;;
16504;SDS011;8365;51.030;4.696;2023-07-31T05:33:38;8.37;;;6.90;;
16504;SDS011;8365;51.030;4.696;2023-07-31T05:36:09;8.37;;;6.47;;
16504;SDS011;8365;51.030;4.696;2023-07-31T05:38:42;8.20;;;6.40;;
16504;SDS011;8365;51.030;4.696;2023-07-31T05:41:14;10.47;;;6.90;;
16504;SDS011;8365;51.030;4.696;2023-07-31T05:43:44;8.43;;;7.40;;
16504;SDS011;8365;51.030;4.696;2023-07-31T05:46:15;9.77;;;7.03;;
16504;SDS011;8365;51.030;4.696;2023-07-31T05:48:46;8.27;;;7.03;;
16504;SDS011;8365;51.030;4.696;2023-07-31T05:51:16;8.52;;;6.47;;
16504;SDS011;8365;51.030;4.696;2023-07-31T05:53:47;7.53;;;6.40;;
16504;SDS011;8365;51.030;4.696;2023-07-31T05:56:19;8.77;;;6.77;;
16504;SDS011;8365;51.030;4.696;2023-07-31T05:58:50;9.53;;;6.53;;
16504;SDS011;8365;51.030;4.696;2023-07-31T06:01:20;12.13;;;6.87;;
16504;SDS011;8365;51.030;4.696;2023-07-31T06:03:51;6.90;;;6.00;;
16504;SDS011;8365;51.030;4.696;2023-07-31T06:06:21;10.40;;;6.50;;
16504;SDS011;8365;51.030;4.696;2023-07-31T06:08:52;9.23;;;6.93;;
16504;SDS011;8365;51.030;4.696;2023-07-31T06:11:25;10.00;;;6.37;;
16504;SDS011;8365;51.030;4.696;2023-07-31T06:13:56;11.00;;;7.07;;
16504;SDS011;8365;51.030;4.696;2023-07-31T06:16:26;9.43;;;6.40;;
16504;SDS011;8365;51.030;4.696;2023-07-31T06:18:57;8.03;;;6.20;;
16504;SDS011;8365;51.030;4.696;2023-07-31T06:21:27;9.63;;;7.03;;
16504;SDS011;8365;51.030;4.696;2023-07-31T06:23:58;8.60;;;6.17;;
16504;SDS011;8365;51.030;4.696;2023-07-31T06:26:28;8.23;;;6.50;;
16504;SDS011;8365;51.030;4.696;2023-07-31T06:28:59;12.77;;;6.57;;
16504;SDS011;8365;51.030;4.696;2023-07-31T06:31:29;8.20;;;6.27;;
16504;SDS011;8365;51.030;4.696;2023-07-31T06:34:00;8.40;;;5.90;;
16504;SDS011;8365;51.030;4.696;2023-07-31T06:36:30;8.00;;;5.67;;
16504;SDS011;8365;51.030;4.696;2023-07-31T06:39:03;9.70;;;6.27;;
16504;SDS011;8365;51.030;4.696;2023-07-31T06:41:34;9.43;;;6.40;;
16504;SDS011;8365;51.030;4.696;2023-07-31T06:44:04;8.63;;;5.73;;
16504;SDS011;8365;51.030;4.696;2023-07-31T06:46:34;7.93;;;5.70;;
16504;SDS011;8365;51.030;4.696;2023-07-31T06:49:05;8.03;;;5.83;;
16504;SDS011;8365;51.030;4.696;2023-07-31T06:51:35;8.13;;;5.33;;
16504;SDS011;8365;51.030;4.696;2023-07-31T06:54:08;8.13;;;5.60;;
16504;SDS011;8365;51.030;4.696;2023-07-31T06:56:38;7.83;;;5.20;;
16504;SDS011;8365;51.030;4.696;2023-07-31T06:59:11;8.93;;;5.63;;
16504;SDS011;8365;51.030;4.696;2023-07-31T07:01:41;7.40;;;5.27;;
16504;SDS011;8365;51.030;4.696;2023-07-31T07:04:13;7.57;;;6.07;;
16504;SDS011;8365;51.030;4.696;2023-07-31T07:06:48;7.17;;;5.10;;
16504;SDS011;8365;51.030;4.696;2023-07-31T07:09:19;9.20;;;5.40;;
16504;SDS011;8365;51.030;4.696;2023-07-31T07:11:49;10.27;;;5.30;;
16504;SDS011;8365;51.030;4.696;2023-07-31T07:14:20;7.87;;;5.60;;
16504;SDS011;8365;51.030;4.696;2023-07-31T07:16:51;9.40;;;5.53;;
16504;SDS011;8365;51.030;4.696;2023-07-31T07:19:21;11.10;;;6.03;;
16504;SDS011;8365;51.030;4.696;2023-07-31T07:21:52;6.43;;;4.87;;
16504;SDS011;8365;51.030;4.696;2023-07-31T07:24:22;7.65;;;5.00;;
16504;SDS011;8365;51.030;4.696;2023-07-31T07:26:53;6.78;;;4.97;;
16504;SDS011;8365;51.030;4.696;2023-07-31T07:29:23;8.27;;;5.22;;
16504;SDS011;8365;51.030;4.696;2023-07-31T07:31:54;9.50;;;5.78;;
16504;SDS011;8365;51.030;4.696;2023-07-31T07:34:27;8.32;;;5.03;;
16504;SDS011;8365;51.030;4.696;2023-07-31T07:37:02;8.18;;;5.07;;
16504;SDS011;8365;51.030;4.696;2023-07-31T07:39:33;8.13;;;5.00;;
16504;SDS011;8365;51.030;4.696;2023-07-31T07:42:04;5.65;;;4.68;;
16504;SDS011;8365;51.030;4.696;2023-07-31T07:44:34;6.40;;;5.15;;
16504;SDS011;8365;51.030;4.696;2023-07-31T07:47:05;9.17;;;5.03;;
16504;SDS011;8365;51.030;4.696;2023-07-31T07:49:38;9.10;;;5.33;;
16504;SDS011;8365;51.030;4.696;2023-07-31T07:52:09;8.38;;;5.07;;
16504;SDS011;8365;51.030;4.696;2023-07-31T07:54:39;5.88;;;4.60;;
16504;SDS011;8365;51.030;4.696;2023-07-31T07:57:10;7.25;;;5.53;;
16504;SDS011;8365;51.030;4.696;2023-07-31T07:59:40;8.57;;;5.00;;
16504;SDS011;8365;51.030;4.696;2023-07-31T08:02:12;7.17;;;5.60;;
16504;SDS011;8365;51.030;4.696;2023-07-31T08:04:42;10.87;;;5.67;;
16504;SDS011;8365;51.030;4.696;2023-07-31T08:07:13;8.27;;;5.35;;
16504;SDS011;8365;51.030;4.696;2023-07-31T08:09:43;7.77;;;5.77;;
16504;SDS011;8365;51.030;4.696;2023-07-31T08:12:14;6.50;;;4.93;;
16504;SDS011;8365;51.030;4.696;2023-07-31T08:14:44;10.68;;;5.20;;
16504;SDS011;8365;51.030;4.696;2023-07-31T08:17:15;7.07;;;4.90;;
16504;SDS011;8365;51.030;4.696;2023-07-31T08:19:45;8.57;;;4.80;;
16504;SDS011;8365;51.030;4.696;2023-07-31T08:22:18;6.90;;;4.73;;
16504;SDS011;8365;51.030;4.696;2023-07-31T08:24:48;5.50;;;4.63;;
16504;SDS011;8365;51.030;4.696;2023-07-31T08:27:19;10.07;;;4.57;;
16504;SDS011;8365;51.030;4.696;2023-07-31T08:29:49;7.53;;;4.60;;
16504;SDS011;8365;51.030;4.696;2023-07-31T08:32:21;6.30;;;4.55;;
16504;SDS011;8365;51.030;4.696;2023-07-31T08:34:52;5.72;;;4.10;;
16504;SDS011;8365;51.030;4.696;2023-07-31T08:37:22;7.60;;;4.95;;
16504;SDS011;8365;51.030;4.696;2023-07-31T08:39:53;5.82;;;3.80;;
16504;SDS011;8365;51.030;4.696;2023-07-31T08:42:24;6.57;;;3.70;;
16504;SDS011;8365;51.030;4.696;2023-07-31T08:44:55;5.43;;;4.05;;
16504;SDS011;8365;51.030;4.696;2023-07-31T08:47:26;4.95;;;4.03;;
16504;SDS011;8365;51.030;4.696;2023-07-31T08:50:01;5.30;;;3.95;;
16504;SDS011;8365;51.030;4.696;2023-07-31T08:52:34;6.28;;;3.70;;
16504;SDS011;8365;51.030;4.696;2023-07-31T08:55:05;4.50;;;3.42;;
16504;SDS011;8365;51.030;4.696;2023-07-31T08:57:37;5.22;;;3.28;;
16504;SDS011;8365;51.030;4.696;2023-07-31T09:00:09;3.67;;;2.95;;
16504;SDS011;8365;51.030;4.696;2023-07-31T09:02:45;6.63;;;3.50;;
16504;SDS011;8365;51.030;4.696;2023-07-31T09:05:16;4.80;;;3.60;;
16504;SDS011;8365;51.030;4.696;2023-07-31T09:07:48;4.72;;;3.97;;
16504;SDS011;8365;51.030;4.696;2023-07-31T09:10:20;5.57;;;3.65;;
16504;SDS011;8365;51.030;4.696;2023-07-31T09:12:51;5.20;;;3.95;;
16504;SDS011;8365;51.030;4.696;2023-07-31T09:15:22;6.95;;;3.90;;
16504;SDS011;8365;51.030;4.696;2023-07-31T09:18:03;5.35;;;3.80;;
16504;SDS011;8365;51.030;4.696;2023-07-31T09:20:35;5.00;;;4.15;;
16504;SDS011;8365;51.030;4.696;2023-07-31T09:23:11;8.23;;;4.00;;
16504;SDS011;8365;51.030;4.696;2023-07-31T09:25:44;5.70;;;3.78;;
16504;SDS011;8365;51.030;4.696;2023-07-31T09:28:16;5.95;;;4.00;;
16504;SDS011;8365;51.030;4.696;2023-07-31T09:30:50;4.10;;;3.70;;
16504;SDS011;8365;51.030;4.696;2023-07-31T09:33:23;5.65;;;3.85;;
16504;SDS011;8365;51.030;4.696;2023-07-31T09:35:54;5.68;;;4.10;;
16504;SDS011;8365;51.030;4.696;2023-07-31T09:38:24;7.70;;;4.45;;
16504;SDS011;8365;51.030;4.696;2023-07-31T09:40:55;6.15;;;4.60;;
16504;SDS011;8365;51.030;4.696;2023-07-31T09:43:28;6.32;;;4.72;;
16504;SDS011;8365;51.030;4.696;2023-07-31T09:46:02;5.32;;;4.18;;
16504;SDS011;8365;51.030;4.696;2023-07-31T09:48:38;10.25;;;4.97;;
16504;SDS011;8365;51.030;4.696;2023-07-31T09:51:08;7.32;;;4.20;;
16504;SDS011;8365;51.030;4.696;2023-07-31T09:53:39;5.50;;;4.40;;
16504;SDS011;8365;51.030;4.696;2023-07-31T09:56:09;7.18;;;4.90;;
16504;SDS011;8365;51.030;4.696;2023-07-31T09:58:40;9.80;;;4.85;;
16504;SDS011;8365;51.030;4.696;2023-07-31T10:01:10;7.43;;;4.50;;
16504;SDS011;8365;51.030;4.696;2023-07-31T10:03:42;7.03;;;4.72;;
16504;SDS011;8365;51.030;4.696;2023-07-31T10:06:15;7.35;;;4.47;;
16504;SDS011;8365;51.030;4.696;2023-07-31T10:08:49;6.93;;;4.60;;
16504;SDS011;8365;51.030;4.696;2023-07-31T10:11:21;7.03;;;4.20;;
16504;SDS011;8365;51.030;4.696;2023-07-31T10:13:53;6.60;;;3.80;;
16504;SDS011;8365;51.030;4.696;2023-07-31T10:16:25;5.93;;;3.88;;
16504;SDS011;8365;51.030;4.696;2023-07-31T10:18:56;6.50;;;3.78;;
16504;SDS011;8365;51.030;4.696;2023-07-31T10:21:27;4.20;;;3.70;;
16504;SDS011;8365;51.030;4.696;2023-07-31T10:23:58;6.82;;;4.10;;
16504;SDS011;8365;51.030;4.696;2023-07-31T10:26:29;5.63;;;4.55;;
16504;SDS011;8365;51.030;4.696;2023-07-31T10:29:01;5.93;;;4.18;;
16504;SDS011;8365;51.030;4.696;2023-07-31T10:31:34;5.30;;;4.43;;
16504;SDS011;8365;51.030;4.696;2023-07-31T10:34:05;6.43;;;3.92;;
16504;SDS011;8365;51.030;4.696;2023-07-31T10:36:36;4.78;;;4.20;;
16504;SDS011;8365;51.030;4.696;2023-07-31T10:39:34;5.10;;;4.15;;
16504;SDS011;8365;51.030;4.696;2023-07-31T10:42:13;4.60;;;3.88;;
16504;SDS011;8365;51.030;4.696;2023-07-31T10:44:44;6.65;;;4.25;;
16504;SDS011;8365;51.030;4.696;2023-07-31T10:47:18;5.43;;;4.20;;
16504;SDS011;8365;51.030;4.696;2023-07-31T10:49:49;4.75;;;4.07;;
16504;SDS011;8365;51.030;4.696;2023-07-31T10:52:20;6.35;;;4.50;;
16504;SDS011;8365;51.030;4.696;2023-07-31T10:55:15;5.50;;;4.20;;
16504;SDS011;8365;51.030;4.696;2023-07-31T10:57:52;7.03;;;4.68;;
16504;SDS011;8365;51.030;4.696;2023-07-31T11:00:25;5.65;;;4.45;;
16504;SDS011;8365;51.030;4.696;2023-07-31T11:05:44;5.15;;;4.28;;
16504;SDS011;8365;51.030;4.696;2023-07-31T11:08:30;7.40;;;5.15;;
16504;SDS011;8365;51.030;4.696;2023-07-31T11:11:08;5.38;;;4.38;;
16504;SDS011;8365;51.030;4.696;2023-07-31T11:13:41;6.95;;;5.40;;
16504;SDS011;8365;51.030;4.696;2023-07-31T11:16:24;6.50;;;5.35;;
16504;SDS011;8365;51.030;4.696;2023-07-31T11:18:55;7.07;;;4.53;;
16504;SDS011;8365;51.030;4.696;2023-07-31T11:21:25;7.72;;;5.15;;
16504;SDS011;8365;51.030;4.696;2023-07-31T11:23:56;6.40;;;4.72;;
16504;SDS011;8365;51.030;4.696;2023-07-31T11:26:27;6.65;;;5.03;;
16504;SDS011;8365;51.030;4.696;2023-07-31T11:28:58;6.75;;;5.22;;
16504;SDS011;8365;51.030;4.696;2023-07-31T11:31:28;6.43;;;4.90;;
16504;SDS011;8365;51.030;4.696;2023-07-31T11:34:05;6.75;;;5.35;;
16504;SDS011;8365;51.030;4.696;2023-07-31T11:36:36;9.07;;;5.97;;
16504;SDS011;8365;51.030;4.696;2023-07-31T11:39:10;8.77;;;5.35;;
16504;SDS011;8365;51.030;4.696;2023-07-31T11:41:41;8.10;;;5.35;;
16504;SDS011;8365;51.030;4.696;2023-07-31T11:44:11;7.63;;;5.78;;
16504;SDS011;8365;51.030;4.696;2023-07-31T11:46:42;9.82;;;5.50;;
16504;SDS011;8365;51.030;4.696;2023-07-31T11:49:12;7.68;;;5.35;;
16504;SDS011;8365;51.030;4.696;2023-07-31T11:51:43;9.00;;;5.38;;
16504;SDS011;8365;51.030;4.696;2023-07-31T11:54:16;7.55;;;5.25;;
16504;SDS011;8365;51.030;4.696;2023-07-31T11:56:47;8.80;;;5.18;;
16504;SDS011;8365;51.030;4.696;2023-07-31T11:59:17;8.02;;;5.45;;
16504;SDS011;8365;51.030;4.696;2023-07-31T12:01:48;8.88;;;5.20;;
16504;SDS011;8365;51.030;4.696;2023-07-31T12:04:23;9.40;;;5.32;;
16504;SDS011;8365;51.030;4.696;2023-07-31T12:06:54;7.07;;;5.15;;
16504;SDS011;8365;51.030;4.696;2023-07-31T12:09:24;9.23;;;5.65;;
16504;SDS011;8365;51.030;4.696;2023-07-31T12:11:56;8.80;;;5.43;;
16504;SDS011;8365;51.030;4.696;2023-07-31T12:14:27;6.72;;;5.03;;
16504;SDS011;8365;51.030;4.696;2023-07-31T12:17:05;6.97;;;5.47;;
16504;SDS011;8365;51.030;4.696;2023-07-31T12:19:37;10.35;;;5.72;;
16504;SDS011;8365;51.030;4.696;2023-07-31T12:22:11;7.50;;;5.50;;
16504;SDS011;8365;51.030;4.696;2023-07-31T12:24:43;6.50;;;5.03;;
16504;SDS011;8365;51.030;4.696;2023-07-31T12:27:15;8.38;;;5.68;;
16504;SDS011;8365;51.030;4.696;2023-07-31T12:29:45;6.68;;;5.10;;
16504;SDS011;8365;51.030;4.696;2023-07-31T12:32:22;7.63;;;5.35;;
16504;SDS011;8365;51.030;4.696;2023-07-31T12:34:55;9.98;;;5.68;;
16504;SDS011;8365;51.030;4.696;2023-07-31T12:37:29;7.57;;;5.28;;
16504;SDS011;8365;51.030;4.696;2023-07-31T12:40:02;6.55;;;4.93;;
16504;SDS011;8365;51.030;4.696;2023-07-31T12:42:36;9.57;;;5.38;;
16504;SDS011;8365;51.030;4.696;2023-07-31T12:45:06;8.77;;;5.50;;
16504;SDS011;8365;51.030;4.696;2023-07-31T12:47:39;8.07;;;5.25;;
16504;SDS011;8365;51.030;4.696;2023-07-31T12:50:10;7.55;;;5.38;;
16504;SDS011;8365;51.030;4.696;2023-07-31T12:52:43;9.48;;;5.80;;
16504;SDS011;8365;51.030;4.696;2023-07-31T12:55:13;6.57;;;5.50;;
16504;SDS011;8365;51.030;4.696;2023-07-31T12:57:44;7.55;;;5.32;;
16504;SDS011;8365;51.030;4.696;2023-07-31T13:00:15;7.72;;;5.70;;
16504;SDS011;8365;51.030;4.696;2023-07-31T13:02:46;6.38;;;5.25;;
16504;SDS011;8365;51.030;4.696;2023-07-31T13:05:16;7.35;;;5.00;;
16504;SDS011;8365;51.030;4.696;2023-07-31T13:07:47;8.73;;;5.25;;
16504;SDS011;8365;51.030;4.696;2023-07-31T13:10:18;8.05;;;5.32;;
16504;SDS011;8365;51.030;4.696;2023-07-31T13:12:49;7.20;;;5.10;;
16504;SDS011;8365;51.030;4.696;2023-07-31T13:15:19;7.40;;;4.70;;
16504;SDS011;8365;51.030;4.696;2023-07-31T13:17:50;9.70;;;6.03;;
16504;SDS011;8365;51.030;4.696;2023-07-31T13:20:20;8.30;;;5.40;;
16504;SDS011;8365;51.030;4.696;2023-07-31T13:22:51;9.77;;;5.63;;
16504;SDS011;8365;51.030;4.696;2023-07-31T13:25:21;9.65;;;5.18;;
16504;SDS011;8365;51.030;4.696;2023-07-31T13:27:52;8.60;;;5.82;;
16504;SDS011;8365;51.030;4.696;2023-07-31T13:30:22;8.65;;;5.35;;
16504;SDS011;8365;51.030;4.696;2023-07-31T13:32:53;8.85;;;5.63;;
16504;SDS011;8365;51.030;4.696;2023-07-31T13:35:23;8.93;;;5.13;;
16504;SDS011;8365;51.030;4.696;2023-07-31T13:37:54;9.75;;;5.07;;
16504;SDS011;8365;51.030;4.696;2023-07-31T13:40:24;8.52;;;5.15;;
16504;SDS011;8365;51.030;4.696;2023-07-31T13:42:55;7.93;;;4.68;;
16504;SDS011;8365;51.030;4.696;2023-07-31T13:45:28;6.70;;;4.75;;
16504;SDS011;8365;51.030;4.696;2023-07-31T13:47:58;9.63;;;5.38;;
16504;SDS011;8365;51.030;4.696;2023-07-31T13:50:29;5.38;;;4.20;;
16504;SDS011;8365;51.030;4.696;2023-07-31T13:52:59;7.38;;;4.68;;
16504;SDS011;8365;51.030;4.696;2023-07-31T13:55:30;7.20;;;4.43;;
16504;SDS011;8365;51.030;4.696;2023-07-31T13:58:00;6.30;;;4.15;;
16504;SDS011;8365;51.030;4.696;2023-07-31T14:00:31;5.97;;;4.55;;
16504;SDS011;8365;51.030;4.696;2023-07-31T14:03:01;6.78;;;4.45;;
16504;SDS011;8365;51.030;4.696;2023-07-31T14:05:32;5.05;;;4.25;;
16504;SDS011;8365;51.030;4.696;2023-07-31T14:08:03;8.45;;;5.10;;
16504;SDS011;8365;51.030;4.696;2023-07-31T14:10:36;6.13;;;4.38;;
16504;SDS011;8365;51.030;4.696;2023-07-31T14:13:06;8.82;;;4.57;;
16504;SDS011;8365;51.030;4.696;2023-07-31T14:15:37;5.97;;;4.38;;
16504;SDS011;8365;51.030;4.696;2023-07-31T14:18:07;6.50;;;4.55;;
16504;SDS011;8365;51.030;4.696;2023-07-31T14:20:38;6.93;;;4.53;;
16504;SDS011;8365;51.030;4.696;2023-07-31T14:23:08;6.78;;;4.50;;
16504;SDS011;8365;51.030;4.696;2023-07-31T14:25:38;7.45;;;4.30;;
16504;SDS011;8365;51.030;4.696;2023-07-31T14:28:09;7.07;;;4.20;;
16504;SDS011;8365;51.030;4.696;2023-07-31T14:30:39;5.30;;;4.38;;
16504;SDS011;8365;51.030;4.696;2023-07-31T14:33:10;6.80;;;4.75;;
16504;SDS011;8365;51.030;4.696;2023-07-31T14:35:40;6.00;;;4.28;;
16504;SDS011;8365;51.030;4.696;2023-07-31T14:38:11;5.50;;;4.28;;
16504;SDS011;8365;51.030;4.696;2023-07-31T14:40:46;5.80;;;4.47;;
16504;SDS011;8365;51.030;4.696;2023-07-31T14:43:16;5.80;;;4.65;;
16504;SDS011;8365;51.030;4.696;2023-07-31T14:45:46;5.88;;;4.38;;
16504;SDS011;8365;51.030;4.696;2023-07-31T14:48:17;7.15;;;4.85;;
16504;SDS011;8365;51.030;4.696;2023-07-31T14:50:47;6.32;;;4.80;;
16504;SDS011;8365;51.030;4.696;2023-07-31T14:53:18;6.28;;;4.65;;
16504;SDS011;8365;51.030;4.696;2023-07-31T14:55:48;5.45;;;4.55;;
16504;SDS011;8365;51.030;4.696;2023-07-31T14:58:19;6.38;;;4.43;;
16504;SDS011;8365;51.030;4.696;2023-07-31T15:00:49;8.85;;;4.95;;
16504;SDS011;8365;51.030;4.696;2023-07-31T15:03:20;8.27;;;4.97;;
16504;SDS011;8365;51.030;4.696;2023-07-31T15:05:50;5.90;;;4.80;;
16504;SDS011;8365;51.030;4.696;2023-07-31T15:08:21;5.40;;;4.53;;
16504;SDS011;8365;51.030;4.696;2023-07-31T15:10:51;5.28;;;4.10;;
16504;SDS011;8365;51.030;4.696;2023-07-31T15:13:27;5.20;;;3.83;;
16504;SDS011;8365;51.030;4.696;2023-07-31T15:16:00;5.18;;;4.25;;
16504;SDS011;8365;51.030;4.696;2023-07-31T15:18:30;4.53;;;3.95;;
16504;SDS011;8365;51.030;4.696;2023-07-31T15:21:01;6.30;;;3.70;;
16504;SDS011;8365;51.030;4.696;2023-07-31T15:23:31;6.80;;;3.58;;
16504;SDS011;8365;51.030;4.696;2023-07-31T15:26:02;4.15;;;3.17;;
16504;SDS011;8365;51.030;4.696;2023-07-31T15:28:32;5.72;;;3.55;;
16504;SDS011;8365;51.030;4.696;2023-07-31T15:31:04;6.05;;;3.40;;
16504;SDS011;8365;51.030;4.696;2023-07-31T15:33:35;5.18;;;3.42;;
16504;SDS011;8365;51.030;4.696;2023-07-31T15:36:08;5.03;;;3.67;;